ADDS TAF Data INFO
IDs: Format: Raw Decoded Include METARs

Data at: 1159 UTC 19 Nov 2017



KAEG 191134Z 1912/2012 33005KT P6SM FEW250
  FM191900 16006KT P6SM SKC
  FM200300 31005KT P6SM SKC